sensor_id;sensor_type;location;lat;lon;timestamp;P1;durP1;ratioP1;P2;durP2;ratioP2
64459;SDS011;50828;53.756;21.140;2023-02-15T00:00:36;12.30;;;5.50;;
64459;SDS011;50828;53.756;21.140;2023-02-15T00:05:45;13.90;;;5.80;;
64459;SDS011;50828;53.756;21.140;2023-02-15T00:10:56;15.50;;;6.20;;
64459;SDS011;50828;53.756;21.140;2023-02-15T00:16:14;14.40;;;5.30;;
64459;SDS011;50828;53.756;21.140;2023-02-15T00:21:22;9.50;;;4.50;;
64459;SDS011;50828;53.756;21.140;2023-02-15T00:26:30;7.40;;;3.20;;
64459;SDS011;50828;53.756;21.140;2023-02-15T00:31:40;7.00;;;3.40;;
64459;SDS011;50828;53.756;21.140;2023-02-15T00:36:48;8.90;;;3.90;;
64459;SDS011;50828;53.756;21.140;2023-02-15T00:42:04;9.30;;;3.90;;
64459;SDS011;50828;53.756;21.140;2023-02-15T00:47:12;6.40;;;3.20;;
64459;SDS011;50828;53.756;21.140;2023-02-15T00:52:20;6.20;;;3.50;;
64459;SDS011;50828;53.756;21.140;2023-02-15T00:57:29;3.90;;;2.20;;
64459;SDS011;50828;53.756;21.140;2023-02-15T01:02:37;5.30;;;2.30;;
64459;SDS011;50828;53.756;21.140;2023-02-15T01:07:45;5.30;;;2.60;;
64459;SDS011;50828;53.756;21.140;2023-02-15T01:12:57;4.40;;;2.40;;
64459;SDS011;50828;53.756;21.140;2023-02-15T01:18:05;5.10;;;2.30;;
64459;SDS011;50828;53.756;21.140;2023-02-15T01:23:14;5.10;;;2.30;;
64459;SDS011;50828;53.756;21.140;2023-02-15T01:28:24;4.70;;;2.30;;
64459;SDS011;50828;53.756;21.140;2023-02-15T01:33:33;5.80;;;2.30;;
64459;SDS011;50828;53.756;21.140;2023-02-15T01:38:42;5.10;;;2.60;;
64459;SDS011;50828;53.756;21.140;2023-02-15T01:43:52;4.20;;;2.20;;
64459;SDS011;50828;53.756;21.140;2023-02-15T01:49:02;5.70;;;2.10;;
64459;SDS011;50828;53.756;21.140;2023-02-15T01:54:17;6.90;;;2.50;;
64459;SDS011;50828;53.756;21.140;2023-02-15T01:59:30;10.10;;;2.80;;
64459;SDS011;50828;53.756;21.140;2023-02-15T02:04:43;7.10;;;2.80;;
64459;SDS011;50828;53.756;21.140;2023-02-15T02:09:55;4.00;;;1.90;;
64459;SDS011;50828;53.756;21.140;2023-02-15T02:15:06;3.30;;;1.90;;
64459;SDS011;50828;53.756;21.140;2023-02-15T02:20:21;3.10;;;1.90;;
64459;SDS011;50828;53.756;21.140;2023-02-15T02:25:51;3.50;;;1.80;;
64459;SDS011;50828;53.756;21.140;2023-02-15T02:31:47;4.60;;;2.10;;
64459;SDS011;50828;53.756;21.140;2023-02-15T02:37:16;4.00;;;2.00;;
64459;SDS011;50828;53.756;21.140;2023-02-15T02:42:33;5.00;;;2.20;;
64459;SDS011;50828;53.756;21.140;2023-02-15T02:47:45;4.10;;;1.80;;
64459;SDS011;50828;53.756;21.140;2023-02-15T02:52:59;5.10;;;2.00;;
64459;SDS011;50828;53.756;21.140;2023-02-15T02:58:08;4.10;;;2.40;;
64459;SDS011;50828;53.756;21.140;2023-02-15T03:03:23;4.20;;;2.30;;
64459;SDS011;50828;53.756;21.140;2023-02-15T03:08:36;4.70;;;2.40;;
64459;SDS011;50828;53.756;21.140;2023-02-15T03:13:49;5.20;;;2.30;;
64459;SDS011;50828;53.756;21.140;2023-02-15T03:18:59;3.50;;;1.60;;
64459;SDS011;50828;53.756;21.140;2023-02-15T03:24:12;6.10;;;2.70;;
64459;SDS011;50828;53.756;21.140;2023-02-15T03:34:31;6.30;;;2.70;;
64459;SDS011;50828;53.756;21.140;2023-02-15T03:39:42;4.60;;;2.70;;
64459;SDS011;50828;53.756;21.140;2023-02-15T03:44:54;5.50;;;2.80;;
64459;SDS011;50828;53.756;21.140;2023-02-15T03:50:08;4.50;;;2.40;;
64459;SDS011;50828;53.756;21.140;2023-02-15T03:55:35;6.30;;;2.90;;
64459;SDS011;50828;53.756;21.140;2023-02-15T04:00:45;6.90;;;2.70;;
64459;SDS011;50828;53.756;21.140;2023-02-15T04:06:18;6.30;;;3.00;;
64459;SDS011;50828;53.756;21.140;2023-02-15T04:11:25;6.40;;;3.40;;
64459;SDS011;50828;53.756;21.140;2023-02-15T04:16:33;6.80;;;3.40;;
64459;SDS011;50828;53.756;21.140;2023-02-15T04:21:42;8.20;;;2.80;;
64459;SDS011;50828;53.756;21.140;2023-02-15T04:27:09;7.10;;;3.70;;
64459;SDS011;50828;53.756;21.140;2023-02-15T04:32:19;7.10;;;3.20;;
64459;SDS011;50828;53.756;21.140;2023-02-15T04:37:27;9.60;;;3.60;;
64459;SDS011;50828;53.756;21.140;2023-02-15T04:42:36;7.20;;;3.50;;
64459;SDS011;50828;53.756;21.140;2023-02-15T04:47:44;7.60;;;3.60;;
64459;SDS011;50828;53.756;21.140;2023-02-15T04:52:53;7.80;;;3.80;;
64459;SDS011;50828;53.756;21.140;2023-02-15T04:58:01;10.10;;;4.00;;
64459;SDS011;50828;53.756;21.140;2023-02-15T05:03:09;7.50;;;3.50;;
64459;SDS011;50828;53.756;21.140;2023-02-15T05:08:18;11.70;;;4.60;;
64459;SDS011;50828;53.756;21.140;2023-02-15T05:13:28;7.60;;;3.50;;
64459;SDS011;50828;53.756;21.140;2023-02-15T05:18:36;9.20;;;4.00;;
64459;SDS011;50828;53.756;21.140;2023-02-15T05:23:43;7.20;;;3.10;;
64459;SDS011;50828;53.756;21.140;2023-02-15T05:28:51;7.60;;;3.50;;
64459;SDS011;50828;53.756;21.140;2023-02-15T05:34:00;9.10;;;3.20;;
64459;SDS011;50828;53.756;21.140;2023-02-15T05:39:08;7.00;;;3.50;;
64459;SDS011;50828;53.756;21.140;2023-02-15T05:44:17;7.00;;;3.20;;
64459;SDS011;50828;53.756;21.140;2023-02-15T05:49:26;11.20;;;3.50;;
64459;SDS011;50828;53.756;21.140;2023-02-15T05:54:35;5.90;;;2.90;;
64459;SDS011;50828;53.756;21.140;2023-02-15T05:59:44;11.00;;;3.70;;
64459;SDS011;50828;53.756;21.140;2023-02-15T06:04:52;9.40;;;3.60;;
64459;SDS011;50828;53.756;21.140;2023-02-15T06:10:00;9.00;;;3.70;;
64459;SDS011;50828;53.756;21.140;2023-02-15T06:15:09;11.50;;;3.50;;
64459;SDS011;50828;53.756;21.140;2023-02-15T06:20:18;11.10;;;3.90;;
64459;SDS011;50828;53.756;21.140;2023-02-15T06:25:26;15.40;;;4.40;;
64459;SDS011;50828;53.756;21.140;2023-02-15T06:30:34;11.90;;;4.30;;
64459;SDS011;50828;53.756;21.140;2023-02-15T06:35:41;13.50;;;4.60;;
64459;SDS011;50828;53.756;21.140;2023-02-15T06:40:50;11.80;;;4.30;;
64459;SDS011;50828;53.756;21.140;2023-02-15T06:45:58;10.30;;;4.00;;
64459;SDS011;50828;53.756;21.140;2023-02-15T06:51:07;10.10;;;4.10;;
64459;SDS011;50828;53.756;21.140;2023-02-15T06:56:15;15.10;;;4.70;;
64459;SDS011;50828;53.756;21.140;2023-02-15T07:01:22;13.30;;;5.00;;
64459;SDS011;50828;53.756;21.140;2023-02-15T07:06:32;11.20;;;4.20;;
64459;SDS011;50828;53.756;21.140;2023-02-15T07:11:40;7.40;;;2.70;;
64459;SDS011;50828;53.756;21.140;2023-02-15T07:17:07;9.20;;;2.90;;
64459;SDS011;50828;53.756;21.140;2023-02-15T07:22:35;8.10;;;3.10;;
64459;SDS011;50828;53.756;21.140;2023-02-15T07:27:43;4.70;;;2.10;;
64459;SDS011;50828;53.756;21.140;2023-02-15T07:32:51;5.60;;;2.30;;
64459;SDS011;50828;53.756;21.140;2023-02-15T07:38:20;5.50;;;2.20;;
64459;SDS011;50828;53.756;21.140;2023-02-15T07:43:28;5.70;;;2.30;;
64459;SDS011;50828;53.756;21.140;2023-02-15T07:48:38;7.30;;;2.70;;
64459;SDS011;50828;53.756;21.140;2023-02-15T07:53:47;5.30;;;2.30;;
64459;SDS011;50828;53.756;21.140;2023-02-15T07:58:55;5.20;;;2.40;;
64459;SDS011;50828;53.756;21.140;2023-02-15T08:04:08;5.10;;;2.00;;
64459;SDS011;50828;53.756;21.140;2023-02-15T08:09:20;3.70;;;1.80;;
64459;SDS011;50828;53.756;21.140;2023-02-15T08:14:28;3.40;;;1.70;;
64459;SDS011;50828;53.756;21.140;2023-02-15T08:19:37;4.60;;;2.20;;
64459;SDS011;50828;53.756;21.140;2023-02-15T08:24:46;6.20;;;2.30;;
64459;SDS011;50828;53.756;21.140;2023-02-15T08:29:55;6.20;;;2.50;;
64459;SDS011;50828;53.756;21.140;2023-02-15T08:35:03;8.30;;;2.90;;
64459;SDS011;50828;53.756;21.140;2023-02-15T08:40:12;7.10;;;2.50;;
64459;SDS011;50828;53.756;21.140;2023-02-15T08:45:19;7.80;;;3.50;;
64459;SDS011;50828;53.756;21.140;2023-02-15T08:50:30;7.50;;;2.90;;
64459;SDS011;50828;53.756;21.140;2023-02-15T08:55:38;6.80;;;3.20;;
64459;SDS011;50828;53.756;21.140;2023-02-15T09:06:24;8.90;;;3.40;;
64459;SDS011;50828;53.756;21.140;2023-02-15T09:11:34;9.50;;;3.70;;
64459;SDS011;50828;53.756;21.140;2023-02-15T09:16:44;7.70;;;3.20;;
64459;SDS011;50828;53.756;21.140;2023-02-15T09:21:55;7.80;;;3.90;;
64459;SDS011;50828;53.756;21.140;2023-02-15T09:27:04;10.10;;;3.70;;
64459;SDS011;50828;53.756;21.140;2023-02-15T09:32:14;9.80;;;3.60;;
64459;SDS011;50828;53.756;21.140;2023-02-15T09:37:22;11.30;;;4.50;;
64459;SDS011;50828;53.756;21.140;2023-02-15T09:48:19;10.20;;;4.50;;
64459;SDS011;50828;53.756;21.140;2023-02-15T09:53:46;10.20;;;4.40;;
64459;SDS011;50828;53.756;21.140;2023-02-15T09:59:11;12.40;;;4.50;;
64459;SDS011;50828;53.756;21.140;2023-02-15T10:04:29;10.00;;;3.60;;
64459;SDS011;50828;53.756;21.140;2023-02-15T10:09:51;12.00;;;5.20;;
64459;SDS011;50828;53.756;21.140;2023-02-15T10:15:16;10.80;;;4.60;;
64459;SDS011;50828;53.756;21.140;2023-02-15T10:20:31;11.60;;;4.70;;
64459;SDS011;50828;53.756;21.140;2023-02-15T10:25:48;9.40;;;4.10;;
64459;SDS011;50828;53.756;21.140;2023-02-15T10:31:07;11.10;;;5.10;;
64459;SDS011;50828;53.756;21.140;2023-02-15T10:36:22;11.30;;;4.50;;
64459;SDS011;50828;53.756;21.140;2023-02-15T10:41:41;14.50;;;5.30;;
64459;SDS011;50828;53.756;21.140;2023-02-15T10:47:07;14.30;;;5.50;;
64459;SDS011;50828;53.756;21.140;2023-02-15T10:52:37;16.80;;;6.00;;
64459;SDS011;50828;53.756;21.140;2023-02-15T10:58:00;12.90;;;5.20;;
64459;SDS011;50828;53.756;21.140;2023-02-15T11:03:27;17.30;;;5.90;;
64459;SDS011;50828;53.756;21.140;2023-02-15T11:08:44;17.60;;;6.40;;
64459;SDS011;50828;53.756;21.140;2023-02-15T11:13:58;16.20;;;6.70;;
64459;SDS011;50828;53.756;21.140;2023-02-15T11:19:11;15.00;;;5.70;;
64459;SDS011;50828;53.756;21.140;2023-02-15T11:24:26;18.60;;;6.20;;
64459;SDS011;50828;53.756;21.140;2023-02-15T11:29:38;20.10;;;6.60;;
64459;SDS011;50828;53.756;21.140;2023-02-15T11:34:55;17.50;;;5.60;;
64459;SDS011;50828;53.756;21.140;2023-02-15T11:40:13;18.40;;;7.10;;
64459;SDS011;50828;53.756;21.140;2023-02-15T11:45:28;15.50;;;5.20;;
64459;SDS011;50828;53.756;21.140;2023-02-15T11:50:38;17.70;;;6.30;;
64459;SDS011;50828;53.756;21.140;2023-02-15T11:55:47;15.00;;;6.00;;
64459;SDS011;50828;53.756;21.140;2023-02-15T12:00:58;18.20;;;6.50;;
64459;SDS011;50828;53.756;21.140;2023-02-15T12:06:18;19.20;;;6.80;;
64459;SDS011;50828;53.756;21.140;2023-02-15T12:11:32;18.40;;;6.00;;
64459;SDS011;50828;53.756;21.140;2023-02-15T12:16:43;21.40;;;7.60;;
64459;SDS011;50828;53.756;21.140;2023-02-15T12:21:54;21.40;;;7.70;;
64459;SDS011;50828;53.756;21.140;2023-02-15T12:27:03;19.90;;;7.70;;
64459;SDS011;50828;53.756;21.140;2023-02-15T12:32:22;24.40;;;9.60;;
64459;SDS011;50828;53.756;21.140;2023-02-15T12:37:32;21.10;;;7.00;;
64459;SDS011;50828;53.756;21.140;2023-02-15T12:42:43;20.00;;;8.30;;
64459;SDS011;50828;53.756;21.140;2023-02-15T12:48:07;25.00;;;9.00;;
64459;SDS011;50828;53.756;21.140;2023-02-15T12:53:20;30.20;;;10.00;;
64459;SDS011;50828;53.756;21.140;2023-02-15T12:58:37;24.10;;;9.20;;
64459;SDS011;50828;53.756;21.140;2023-02-15T13:03:55;33.90;;;10.90;;
64459;SDS011;50828;53.756;21.140;2023-02-15T13:09:08;28.80;;;10.70;;
64459;SDS011;50828;53.756;21.140;2023-02-15T13:14:22;25.50;;;9.60;;
64459;SDS011;50828;53.756;21.140;2023-02-15T13:19:36;27.20;;;9.80;;
64459;SDS011;50828;53.756;21.140;2023-02-15T13:24:48;27.10;;;8.50;;
64459;SDS011;50828;53.756;21.140;2023-02-15T13:29:58;26.10;;;9.70;;
64459;SDS011;50828;53.756;21.140;2023-02-15T13:35:19;20.80;;;7.00;;
64459;SDS011;50828;53.756;21.140;2023-02-15T13:40:30;19.10;;;7.80;;
64459;SDS011;50828;53.756;21.140;2023-02-15T13:45:45;26.20;;;9.60;;
64459;SDS011;50828;53.756;21.140;2023-02-15T13:51:09;19.70;;;8.60;;
64459;SDS011;50828;53.756;21.140;2023-02-15T13:56:28;24.20;;;7.70;;
64459;SDS011;50828;53.756;21.140;2023-02-15T14:01:45;28.30;;;9.40;;
64459;SDS011;50828;53.756;21.140;2023-02-15T14:07:04;25.60;;;9.80;;
64459;SDS011;50828;53.756;21.140;2023-02-15T14:12:37;27.20;;;9.60;;
64459;SDS011;50828;53.756;21.140;2023-02-15T14:18:02;28.90;;;10.00;;
64459;SDS011;50828;53.756;21.140;2023-02-15T14:23:32;23.50;;;9.00;;
64459;SDS011;50828;53.756;21.140;2023-02-15T14:28:51;22.50;;;8.60;;
64459;SDS011;50828;53.756;21.140;2023-02-15T14:34:08;27.10;;;10.90;;
64459;SDS011;50828;53.756;21.140;2023-02-15T14:39:31;23.90;;;8.50;;
64459;SDS011;50828;53.756;21.140;2023-02-15T14:45:05;29.50;;;10.00;;
64459;SDS011;50828;53.756;21.140;2023-02-15T14:50:41;23.40;;;9.50;;
64459;SDS011;50828;53.756;21.140;2023-02-15T15:01:26;32.40;;;12.30;;
64459;SDS011;50828;53.756;21.140;2023-02-15T15:06:36;31.80;;;12.60;;
64459;SDS011;50828;53.756;21.140;2023-02-15T15:11:48;31.60;;;13.60;;
64459;SDS011;50828;53.756;21.140;2023-02-15T15:16:56;35.50;;;13.60;;
64459;SDS011;50828;53.756;21.140;2023-02-15T15:22:05;34.10;;;12.80;;
64459;SDS011;50828;53.756;21.140;2023-02-15T15:27:41;34.20;;;12.90;;
64459;SDS011;50828;53.756;21.140;2023-02-15T15:32:53;31.00;;;11.30;;
64459;SDS011;50828;53.756;21.140;2023-02-15T15:38:14;26.10;;;11.20;;
64459;SDS011;50828;53.756;21.140;2023-02-15T15:49:38;28.00;;;10.80;;
64459;SDS011;50828;53.756;21.140;2023-02-15T15:54:48;32.90;;;11.30;;
64459;SDS011;50828;53.756;21.140;2023-02-15T16:00:01;32.40;;;11.40;;
64459;SDS011;50828;53.756;21.140;2023-02-15T16:05:26;42.70;;;15.10;;
64459;SDS011;50828;53.756;21.140;2023-02-15T16:10:40;44.30;;;16.20;;
64459;SDS011;50828;53.756;21.140;2023-02-15T16:15:50;55.30;;;19.30;;
64459;SDS011;50828;53.756;21.140;2023-02-15T16:20:59;64.60;;;21.40;;
64459;SDS011;50828;53.756;21.140;2023-02-15T16:26:08;81.70;;;24.50;;
64459;SDS011;50828;53.756;21.140;2023-02-15T16:31:25;65.70;;;22.30;;
64459;SDS011;50828;53.756;21.140;2023-02-15T16:36:33;70.20;;;25.00;;
64459;SDS011;50828;53.756;21.140;2023-02-15T16:41:41;86.70;;;28.70;;
64459;SDS011;50828;53.756;21.140;2023-02-15T16:46:51;91.10;;;29.40;;
64459;SDS011;50828;53.756;21.140;2023-02-15T16:52:01;70.80;;;23.20;;
64459;SDS011;50828;53.756;21.140;2023-02-15T16:57:16;89.20;;;26.50;;
64459;SDS011;50828;53.756;21.140;2023-02-15T17:02:27;84.70;;;27.80;;
64459;SDS011;50828;53.756;21.140;2023-02-15T17:08:12;83.40;;;26.80;;
64459;SDS011;50828;53.756;21.140;2023-02-15T17:13:24;76.70;;;25.80;;
64459;SDS011;50828;53.756;21.140;2023-02-15T17:18:33;66.50;;;22.40;;
64459;SDS011;50828;53.756;21.140;2023-02-15T17:23:50;70.40;;;23.40;;
64459;SDS011;50828;53.756;21.140;2023-02-15T17:29:09;74.20;;;25.90;;
64459;SDS011;50828;53.756;21.140;2023-02-15T17:34:46;61.10;;;24.80;;
64459;SDS011;50828;53.756;21.140;2023-02-15T17:40:06;57.50;;;19.80;;
64459;SDS011;50828;53.756;21.140;2023-02-15T17:45:24;57.10;;;20.20;;
64459;SDS011;50828;53.756;21.140;2023-02-15T17:50:37;60.10;;;22.20;;
64459;SDS011;50828;53.756;21.140;2023-02-15T17:55:45;50.80;;;18.80;;
64459;SDS011;50828;53.756;21.140;2023-02-15T18:00:54;66.70;;;23.10;;
64459;SDS011;50828;53.756;21.140;2023-02-15T18:06:25;56.90;;;20.50;;
64459;SDS011;50828;53.756;21.140;2023-02-15T18:11:50;50.20;;;18.60;;
64459;SDS011;50828;53.756;21.140;2023-02-15T18:16:59;42.60;;;16.50;;
64459;SDS011;50828;53.756;21.140;2023-02-15T18:22:10;49.90;;;18.40;;
64459;SDS011;50828;53.756;21.140;2023-02-15T18:27:19;50.20;;;19.70;;
64459;SDS011;50828;53.756;21.140;2023-02-15T18:32:30;49.00;;;18.70;;
64459;SDS011;50828;53.756;21.140;2023-02-15T18:37:41;56.50;;;20.10;;
64459;SDS011;50828;53.756;21.140;2023-02-15T18:42:50;49.10;;;17.90;;
64459;SDS011;50828;53.756;21.140;2023-02-15T18:48:00;45.10;;;17.60;;
64459;SDS011;50828;53.756;21.140;2023-02-15T18:53:14;50.50;;;19.10;;
64459;SDS011;50828;53.756;21.140;2023-02-15T18:58:25;45.30;;;16.20;;
64459;SDS011;50828;53.756;21.140;2023-02-15T19:03:34;47.20;;;17.10;;
64459;SDS011;50828;53.756;21.140;2023-02-15T19:08:41;43.50;;;16.10;;
64459;SDS011;50828;53.756;21.140;2023-02-15T19:13:52;47.20;;;15.90;;
64459;SDS011;50828;53.756;21.140;2023-02-15T19:19:00;49.70;;;18.00;;
64459;SDS011;50828;53.756;21.140;2023-02-15T19:24:11;48.00;;;17.60;;
64459;SDS011;50828;53.756;21.140;2023-02-15T19:29:25;50.20;;;17.30;;
64459;SDS011;50828;53.756;21.140;2023-02-15T19:34:36;59.00;;;20.70;;
64459;SDS011;50828;53.756;21.140;2023-02-15T19:39:44;57.30;;;20.10;;
64459;SDS011;50828;53.756;21.140;2023-02-15T19:44:53;74.60;;;24.00;;
64459;SDS011;50828;53.756;21.140;2023-02-15T19:50:01;63.60;;;22.10;;
64459;SDS011;50828;53.756;21.140;2023-02-15T19:55:13;77.60;;;23.20;;
64459;SDS011;50828;53.756;21.140;2023-02-15T20:00:30;63.90;;;23.20;;
64459;SDS011;50828;53.756;21.140;2023-02-15T20:05:38;68.30;;;22.70;;
64459;SDS011;50828;53.756;21.140;2023-02-15T20:10:47;75.60;;;23.40;;
64459;SDS011;50828;53.756;21.140;2023-02-15T20:15:55;74.10;;;21.10;;
64459;SDS011;50828;53.756;21.140;2023-02-15T20:21:09;69.10;;;21.10;;
64459;SDS011;50828;53.756;21.140;2023-02-15T20:26:20;56.10;;;19.10;;
64459;SDS011;50828;53.756;21.140;2023-02-15T20:36:39;60.10;;;17.60;;
64459;SDS011;50828;53.756;21.140;2023-02-15T20:41:47;70.00;;;22.20;;
64459;SDS011;50828;53.756;21.140;2023-02-15T20:46:56;64.00;;;20.90;;
64459;SDS011;50828;53.756;21.140;2023-02-15T20:52:11;71.80;;;20.90;;
64459;SDS011;50828;53.756;21.140;2023-02-15T20:57:25;70.70;;;21.70;;
64459;SDS011;50828;53.756;21.140;2023-02-15T21:02:33;65.80;;;20.10;;
64459;SDS011;50828;53.756;21.140;2023-02-15T21:07:41;73.90;;;21.00;;
64459;SDS011;50828;53.756;21.140;2023-02-15T21:12:49;68.70;;;20.40;;
64459;SDS011;50828;53.756;21.140;2023-02-15T21:17:59;82.20;;;21.60;;
64459;SDS011;50828;53.756;21.140;2023-02-15T21:23:10;68.90;;;21.10;;
64459;SDS011;50828;53.756;21.140;2023-02-15T21:28:22;69.50;;;21.00;;
64459;SDS011;50828;53.756;21.140;2023-02-15T21:33:31;79.70;;;21.20;;
64459;SDS011;50828;53.756;21.140;2023-02-15T21:38:39;84.50;;;23.60;;
64459;SDS011;50828;53.756;21.140;2023-02-15T21:43:47;80.20;;;21.20;;
64459;SDS011;50828;53.756;21.140;2023-02-15T21:49:13;74.30;;;21.10;;
64459;SDS011;50828;53.756;21.140;2023-02-15T21:54:20;86.10;;;23.90;;
64459;SDS011;50828;53.756;21.140;2023-02-15T21:59:29;78.90;;;22.50;;
64459;SDS011;50828;53.756;21.140;2023-02-15T22:04:37;76.70;;;21.80;;
64459;SDS011;50828;53.756;21.140;2023-02-15T22:09:45;73.60;;;22.80;;
64459;SDS011;50828;53.756;21.140;2023-02-15T22:14:54;83.70;;;23.90;;
64459;SDS011;50828;53.756;21.140;2023-02-15T22:20:04;95.10;;;24.00;;
64459;SDS011;50828;53.756;21.140;2023-02-15T22:25:21;85.50;;;25.80;;
64459;SDS011;50828;53.756;21.140;2023-02-15T22:30:30;73.90;;;22.80;;
64459;SDS011;50828;53.756;21.140;2023-02-15T22:35:41;79.60;;;24.10;;
64459;SDS011;50828;53.756;21.140;2023-02-15T22:40:49;75.00;;;24.70;;
64459;SDS011;50828;53.756;21.140;2023-02-15T22:46:01;71.80;;;23.80;;
64459;SDS011;50828;53.756;21.140;2023-02-15T22:51:12;64.00;;;21.30;;
64459;SDS011;50828;53.756;21.140;2023-02-15T22:56:26;71.70;;;22.60;;
64459;SDS011;50828;53.756;21.140;2023-02-15T23:01:41;82.50;;;23.90;;
64459;SDS011;50828;53.756;21.140;2023-02-15T23:06:50;79.50;;;23.00;;
64459;SDS011;50828;53.756;21.140;2023-02-15T23:12:00;66.40;;;19.70;;
64459;SDS011;50828;53.756;21.140;2023-02-15T23:17:11;73.30;;;20.50;;
64459;SDS011;50828;53.756;21.140;2023-02-15T23:22:19;65.60;;;22.80;;
64459;SDS011;50828;53.756;21.140;2023-02-15T23:27:27;68.00;;;21.90;;
64459;SDS011;50828;53.756;21.140;2023-02-15T23:32:53;65.80;;;21.30;;
64459;SDS011;50828;53.756;21.140;2023-02-15T23:38:02;66.90;;;20.50;;
64459;SDS011;50828;53.756;21.140;2023-02-15T23:43:12;70.20;;;19.00;;
64459;SDS011;50828;53.756;21.140;2023-02-15T23:48:27;71.00;;;22.30;;
64459;SDS011;50828;53.756;21.140;2023-02-15T23:53:38;72.90;;;22.90;;
64459;SDS011;50828;53.756;21.140;2023-02-15T23:58:46;65.90;;;22.60;;
